Lueders, Texas
Current Conditions -  °F | °C
As of 5:52 PM on Monday 20 Oct 2014 (Local Time) from KABI Reporting Station
Few Clouds Few Clouds  
Wind Chill: 79°   Ceiling: Unl
Heat Index: 79°   Visibility: 10mi
Dew Point: 53°   Wind: 8mph
Humidity: 40%   Direction: 140°SE
Pressure: 30.02"   Gusts: NA
Location:  32.8°N, 99.62°W
Report Text: KABI 202252Z 14007KT 10SM FEW060 26/12 A3002 RMK AO2 SLP144 T02610117
Loading
Personal Weather Stations






























Interactive Weather Map
Tropical Storm Tracking
New forecast layout! Learn more

10-Day Weather Forecast

Advertisements
Track Severe Weather on mobile